Flight Track Log - Related Links

Times and Time Zones

All times are in EDT time to prevent confusion due to time zone crossing. See the N678H flight status page for this flight to view local times or setup timezone preferences in your user account.

Time Position Orientation Groundspeed Altitude Reporting Facility
EDT Latitude Longitude Course Direction KTS MPH feet Rate Location/Type
Tue 04:07:44 PM 35.7722 -90.7742 277° West 185 213 3,800  Level Memphis Center
Tue 04:08:44 PM 35.7511 -90.8072 232° Southwest 157 181 4,400 650 Climbing Memphis Center
Tue 04:09:44 PM 35.7322 -90.8328 228° Southwest 140 161 5,100 750 Climbing Memphis Center
Tue 04:10:44 PM 35.7383 -90.8889 278° West 132 152 5,900 700 Climbing Memphis Center
Tue 04:11:00 PM 35.8514 -90.8636 277° West  Level FlightAware Approximate
Tue 04:11:44 PM 35.7486 -90.9350 285° West 132 152 6,500  Level Memphis Center
Tue 04:12:00 PM 35.8560 -90.9101 277° West  Level FlightAware Approximate
Tue 04:12:44 PM 35.7589 -90.9761 287° West 132 152 7,400  Level Memphis Center
Tue 04:13:44 PM 35.7608 -91.0169 273° West 127 146 8,100 750 Climbing Memphis Center
Tue 04:14:44 PM 35.7606 -91.0556 270° West 122 140 8,900 750 Climbing Memphis Center
Tue 04:15:44 PM 35.7686 -91.1017 282° West 127 146 9,600 700 Climbing Memphis Center
Tue 04:16:44 PM 35.7683 -91.1475 270° West 127 146 10,300 750 Climbing Memphis Center
Tue 04:17:44 PM 35.7658 -91.1911 266° West 127 146 11,100 750 Climbing Memphis Center
Tue 04:18:44 PM 35.7739 -91.2372 282° West 133 153 11,800 500 Climbing Memphis Center
Tue 04:19:44 PM 35.7736 -91.2806 270° West 133 153 12,100 100 Climbing Memphis Center
Tue 04:20:44 PM 35.7858 -91.3344 286° West 145 167 12,000 -50 Descending Memphis Center
Tue 04:21:44 PM 35.8019 -91.3911 289° West 158 182 12,000  Level Memphis Center
Tue 04:22:44 PM 35.8139 -91.4475 285° West 164 189 12,000  Level Memphis Center
Tue 04:23:44 PM 35.8261 -91.4989 286° West 164 189 12,000  Level Memphis Center
Tue 04:24:44 PM 35.8339 -91.5581 279° West 164 189 12,000  Level Memphis Center
Tue 04:25:44 PM 35.8394 -91.6117 277° West 164 189 12,000  Level Memphis Center
Tue 04:26:44 PM 35.8431 -91.6681 275° West 164 189 12,000  Level Memphis Center
Tue 04:27:44 PM 35.8508 -91.7219 280° West 164 189 12,000  Level Memphis Center
Tue 04:28:44 PM 35.8608 -91.7786 282° West 164 189 12,000  Level Memphis Center
Tue 04:29:44 PM 35.8706 -91.8350 282° West 164 189 12,000  Level Memphis Center
Tue 04:30:44 PM 35.8719 -91.8889 272° West 164 189 12,000  Level Memphis Center
Tue 04:31:44 PM 35.8817 -91.9428 283° West 164 189 12,000  Level Memphis Center
Tue 04:32:44 PM 35.8894 -91.9969 280° West 164 189 12,000  Level Memphis Center
Tue 04:33:44 PM 35.8969 -92.0483 280° West 164 189 12,000  Level Memphis Center
Tue 04:34:44 PM 35.9025 -92.1022 277° West 158 182 12,000  Level Memphis Center
Tue 04:35:44 PM 35.9100 -92.1561 280° West 158 182 12,000  Level Memphis Center
Tue 04:36:44 PM 35.9156 -92.2100 277° West 158 182 12,000  Level Memphis Center
Tue 04:37:44 PM 35.9189 -92.2614 275° West 158 182 12,000  Level Memphis Center
Tue 04:38:44 PM 35.9222 -92.3153 274° West 158 182 12,000  Level Memphis Center
Tue 04:39:44 PM 35.9256 -92.3692 274° West 158 182 12,000  Level Memphis Center
Tue 04:40:44 PM 35.9289 -92.4206 275° West 158 182 12,000  Level Memphis Center
Tue 04:41:44 PM 35.9344 -92.4719 278° West 158 182 12,000  Level Memphis Center
Tue 04:42:44 PM 35.9417 -92.5261 279° West 158 182 12,000  Level Memphis Center
Tue 04:43:44 PM 35.9469 -92.5800 277° West 158 182 12,000  Level Memphis Center
Tue 04:44:44 PM 35.9544 -92.6289 281° West 164 189 12,000  Level Memphis Center
Tue 04:45:44 PM 35.9619 -92.6831 280° West 159 183 12,000  Level Memphis Center
Tue 04:46:44 PM 35.9692 -92.7397 279° West 159 183 12,000  Level Memphis Center
Tue 04:47:44 PM 35.9764 -92.7911 280° West 159 183 12,000  Level Memphis Center
Tue 04:48:44 PM 35.9836 -92.8478 279° West 164 189 12,000  Level Memphis Center
Tue 04:49:44 PM 35.9908 -92.9019 279° West 164 189 12,000  Level Memphis Center
Tue 04:50:44 PM 35.9981 -92.9586 279° West 164 189 12,000 -400 Level Memphis Center
Tue 04:51:44 PM 36.0072 -93.0231 280° West 169 194 11,200 -650 Descending Memphis Center
Tue 04:52:44 PM 36.0142 -93.0847 278° West 179 206 10,700 -400 Descending Memphis Center
Tue 04:53:44 PM 36.0233 -93.1442 281° West 184 212 10,400 -400 Descending Memphis Center
Tue 04:54:44 PM 36.0322 -93.2061 280° West 184 212 9,900 -500 Descending Memphis Center
Tue 04:55:44 PM 36.0414 -93.2653 281° West 179 206 9,400 -450 Descending Memphis Center
Tue 04:56:44 PM 36.0503 -93.3247 280° West 179 206 9,000 -450 Descending Memphis Center
Tue 04:57:44 PM 36.0594 -93.3842 281° West 179 206 8,500 -500 Descending Memphis Center
Tue 04:58:44 PM 36.0664 -93.4433 278° West 179 206 8,000 -500 Descending Memphis Center
Tue 04:59:44 PM 36.0733 -93.5003 279° West 179 206 7,500 -500 Descending Memphis Center
Tue 05:00:44 PM 36.0800 -93.5569 278° West 179 206 7,000 -450 Descending Memphis Center
Tue 05:01:44 PM 36.0997 -93.6092 295° West 174 200 6,600 -500 Descending Memphis Center
Tue 05:02:44 PM 36.1147 -93.6636 289° West 174 200 6,000 -550 Descending Memphis Center
Tue 05:03:44 PM 36.1322 -93.7183 292° West 169 194 5,500 -500 Descending Memphis Center
Tue 05:04:44 PM 36.1431 -93.7728 284° West 169 194 5,000 -550 Descending Memphis Center
Tue 05:05:44 PM 36.1561 -93.8350 285° West 164 189 4,400 -500 Descending Memphis Center
Tue 05:06:44 PM 36.1650 -93.8867 282° West 164 189 4,000 -350 Descending Memphis Center
Tue 05:07:44 PM 36.1719 -93.9358 280° West 164 189 3,700 -300 Descending Memphis Center
Tue 05:09:00 PM 36.1697 -94.0072 268° West  Level FlightAware Approximate
Tue 05:16:00 PM 36.1667 -94.1167 270° West  Level FlightAware Approximate
Tue 05:17:00 PM 36.1764 -94.1192 270° West  Level Estimated
Tue 05:18:00 PM 36.1764 -94.1192 270° West  Level Estimated
Tue 05:19:00 PM 36.1764 -94.1192 270° West  Level Estimated
Tue 05:20:00 PM 36.1764 -94.1192 270° West  Level Estimated
Tue 05:21:00 PM 36.1764 -94.1192 270° West  Level Estimated

Login

Don't have an account? Register now (free) for customized features, flight alerts, and more!